Time;durP1;ratioP1;P1;durP2;ratioP2;P2;SDS_P1;SDS_P2;PMS_P1;PMS_P2;Temp;Humidity;BMP_temperature;BMP_pressure;BME280_temperature;BME280_humidity;BME280_pressure;Samples;Min_cycle;Max_cycle;Signal;HPM_P1;HPM_P2
2022/07/22 00:01:31;;;;;;;9.70;4.10;;;;;;;18.87;74.17;100563.13;84718;1324;22604;-70
2022/07/22 00:03:58;;;;;;;6.80;4.60;;;;;;;18.90;73.99;100568.56;84784;1328;25434;-71
2022/07/22 00:06:26;;;;;;;4.60;4.00;;;;;;;18.97;73.76;100567.17;84717;1329;22591;-71
2022/07/22 00:08:53;;;;;;;7.40;4.50;;;;;;;19.05;73.40;100568.19;84712;1327;23931;-71
2022/07/22 00:11:05;;;;;;;6.20;4.40;;;;;;;19.08;73.26;100568.48;84706;1329;24128;-71
2022/07/22 00:13:14;;;;;;;8.70;4.60;;;;;;;19.11;73.21;100565.34;84711;1329;22587;-69
2022/07/22 00:15:22;;;;;;;;;;;;;;;19.12;73.23;100563.33;84712;1329;22565;-72
2022/07/22 00:17:31;;;;;;;12.70;4.70;;;;;;;19.07;73.26;100562.89;84714;1326;22834;-73
2022/07/22 00:19:43;;;;;;;4.60;4.00;;;;;;;19.05;73.22;100560.92;84711;1327;22603;-72
2022/07/22 00:21:52;;;;;;;5.70;3.80;;;;;;;19.03;73.47;100565.30;84723;1327;22614;-72
2022/07/22 00:24:01;;;;;;;8.00;4.50;;;;;;;18.98;73.60;100560.16;84717;1331;22577;-72
2022/07/22 00:26:10;;;;;;;7.30;3.70;;;;;;;19.00;73.20;100562.00;84701;1327;22755;-71
2022/07/22 00:28:19;;;;;;;5.30;4.10;;;;;;;19.04;72.85;100556.05;84686;1327;22623;-71
2022/07/22 00:30:28;;;;;;;5.20;4.50;;;;;;;19.09;72.63;100558.55;84715;1327;25401;-71
2022/07/22 00:32:37;;;;;;;4.60;3.80;;;;;;;19.14;72.35;100556.60;84663;1328;23066;-70
2022/07/22 00:34:46;;;;;;;6.80;4.60;;;;;;;19.20;71.92;100557.40;84626;1329;23028;-70
2022/07/22 00:36:55;;;;;;;4.40;4.00;;;;;;;19.24;71.77;100556.62;84691;1329;24348;-70
2022/07/22 00:39:04;;;;;;;8.30;4.60;;;;;;;19.27;71.51;100558.34;84735;1320;22621;-70
2022/07/22 00:41:13;;;;;;;12.00;5.00;;;;;;;19.31;71.38;100558.60;84698;1329;22697;-69
2022/07/22 00:43:22;;;;;;;7.00;4.30;;;;;;;19.32;71.23;100553.59;84687;1327;25280;-73
2022/07/22 00:45:31;;;;;;;4.50;3.90;;;;;;;19.30;71.22;100554.73;84700;1327;22871;-71
2022/07/22 00:47:39;;;;;;;9.70;5.40;;;;;;;19.28;71.12;100557.86;84706;1329;22591;-72
2022/07/22 00:49:48;;;;;;;4.30;3.10;;;;;;;19.28;71.08;100553.85;84726;1327;22588;-71
2022/07/22 00:51:57;;;;;;;8.30;4.80;;;;;;;19.26;70.97;100557.70;84701;1323;22676;-70
2022/07/22 00:54:06;;;;;;;4.20;3.80;;;;;;;19.25;70.90;100558.10;84715;1324;22610;-71
2022/07/22 00:56:15;;;;;;;8.00;4.30;;;;;;;19.24;71.00;100557.67;84697;1328;22602;-71
2022/07/22 00:58:25;;;;;;;13.00;4.20;;;;;;;19.22;70.76;100554.06;84713;1326;22623;-72
2022/07/22 01:00:34;;;;;;;6.70;4.40;;;;;;;19.22;70.62;100555.33;84679;1326;22614;-71
2022/07/22 01:02:42;;;;;;;7.40;3.90;;;;;;;19.24;70.56;100551.83;84671;1329;22648;-72
2022/07/22 01:04:54;;;;;;;5.40;3.20;;;;;;;19.27;70.35;100548.60;84745;1329;22592;-71
2022/07/22 01:07:03;;;;;;;7.50;4.20;;;;;;;19.29;70.03;100546.33;84708;1326;22602;-72
2022/07/22 01:09:12;;;;;;;5.50;4.10;;;;;;;19.30;70.01;100547.13;84700;1324;22589;-70
2022/07/22 01:11:22;;;;;;;5.00;4.00;;;;;;;19.29;70.08;100547.23;84714;1327;22592;-71
2022/07/22 01:13:31;;;;;;;7.10;4.10;;;;;;;19.27;70.19;100543.66;84729;1328;22542;-71
2022/07/22 01:15:39;;;;;;;7.70;4.00;;;;;;;19.23;70.37;100539.13;84666;1326;24333;-71
2022/07/22 01:17:48;;;;;;;6.70;4.10;;;;;;;19.18;70.64;100534.02;84711;1327;22669;-72
2022/07/22 01:20:03;;;;;;;7.10;3.80;;;;;;;19.15;70.46;100531.78;84716;1330;22613;-72
2022/07/22 01:22:12;;;;;;;5.00;3.80;;;;;;;19.16;70.11;100534.34;84694;1329;23890;-72
2022/07/22 01:24:21;;;;;;;4.30;3.90;;;;;;;19.19;70.02;100537.52;84740;1327;24269;-71
2022/07/22 01:26:30;;;;;;;5.10;3.70;;;;;;;19.19;70.04;100538.93;84716;1326;23926;-71
2022/07/22 01:28:39;;;;;;;6.60;3.40;;;;;;;19.19;69.80;100540.66;84710;1331;24128;-70
2022/07/22 01:30:49;;;;;;;4.40;3.60;;;;;;;19.19;69.85;100535.89;84713;1327;24059;-72
2022/07/22 01:32:59;;;;;;;6.30;4.30;;;;;;;19.18;69.93;100538.25;84705;1330;22612;-72
2022/07/22 01:35:09;;;;;;;6.10;3.40;;;;;;;19.18;69.86;100533.17;84699;1326;22583;-70
2022/07/22 01:37:16;;;;;;;;;;;;;;;19.20;69.57;100530.15;84708;1329;22564;-70
2022/07/22 01:39:25;;;;;;;5.60;3.90;;;;;;;19.20;69.47;100534.56;84709;1328;22592;-72
2022/07/22 01:41:34;;;;;;;4.20;3.80;;;;;;;19.23;69.25;100528.86;84690;1328;24374;-70
2022/07/22 01:43:42;;;;;;;4.90;4.40;;;;;;;19.24;69.20;100531.66;84720;1327;22932;-71
2022/07/22 01:45:54;;;;;;;4.40;3.90;;;;;;;19.24;69.46;100534.29;84702;1327;22938;-71
2022/07/22 01:48:03;;;;;;;6.10;3.40;;;;;;;19.21;69.77;100538.20;84666;1323;22602;-71
2022/07/22 01:50:14;;;;;;;4.80;3.90;;;;;;;19.17;69.97;100539.04;84729;1329;22718;-70
2022/07/22 01:52:23;;;;;;;5.20;3.50;;;;;;;19.12;70.03;100545.41;84687;1329;22606;-70
2022/07/22 01:54:31;;;;;;;6.60;4.00;;;;;;;19.05;69.88;100548.18;84711;1328;22621;-71
2022/07/22 01:56:40;;;;;;;4.90;3.90;;;;;;;18.99;70.11;100550.60;84708;1323;22850;-71
2022/07/22 01:58:49;;;;;;;5.30;4.00;;;;;;;18.93;70.28;100552.97;84688;1328;24246;-71
2022/07/22 02:00:58;;;;;;;4.20;3.80;;;;;;;18.84;70.39;100552.50;84705;1329;25491;-72
2022/07/22 02:03:13;;;;;;;5.40;4.10;;;;;;;18.76;70.73;100555.05;84705;1327;22581;-70
2022/07/22 02:05:33;;;;;;;4.90;4.40;;;;;;;18.67;70.92;100551.77;84670;1326;22706;-71
2022/07/22 02:07:47;;;;;;;4.20;3.70;;;;;;;18.60;71.27;100553.44;84595;1329;22608;-73
2022/07/22 02:09:56;;;;;;;6.60;4.40;;;;;;;18.53;71.41;100553.70;84672;1320;22649;-70
2022/07/22 02:12:05;;;;;;;4.10;3.60;;;;;;;18.48;71.66;100547.59;84617;1329;26499;-72
2022/07/22 02:14:14;;;;;;;4.70;3.30;;;;;;;18.41;71.84;100549.45;84650;1328;23922;-69
2022/07/22 02:16:23;;;;;;;6.60;3.90;;;;;;;18.38;71.97;100553.02;84608;1332;24279;-71
2022/07/22 02:18:32;;;;;;;5.60;4.30;;;;;;;18.33;72.19;100567.08;84652;1332;22574;-69
2022/07/22 02:20:41;;;;;;;5.20;4.70;;;;;;;18.30;72.40;100586.73;84684;1327;22621;-71
2022/07/22 02:22:49;;;;;;;7.80;4.40;;;;;;;18.26;72.44;100571.05;84681;1329;22987;-70
2022/07/22 02:24:58;;;;;;;5.60;4.40;;;;;;;18.25;72.47;100578.41;84618;1327;24915;-70
2022/07/22 02:27:07;;;;;;;9.00;5.30;;;;;;;18.24;72.57;100584.80;84670;1329;25451;-70
2022/07/22 02:29:16;;;;;;;7.70;4.50;;;;;;;18.26;72.55;100583.65;84754;1326;22680;-70
2022/07/22 02:31:25;;;;;;;7.80;5.20;;;;;;;18.26;72.64;100593.52;84653;1328;22580;-73
2022/07/22 02:33:34;;;;;;;8.50;4.60;;;;;;;18.24;72.49;100570.69;84794;1327;22628;-70
2022/07/22 02:35:42;;;;;;;7.30;4.90;;;;;;;18.24;72.63;100567.73;84696;1328;24242;-71
2022/07/22 02:37:51;;;;;;;6.70;5.00;;;;;;;18.23;72.52;100581.91;84797;1323;22962;-71
2022/07/22 02:40:00;;;;;;;6.50;4.80;;;;;;;18.23;72.56;100592.14;84682;1323;22597;-72
2022/07/22 02:42:09;;;;;;;7.50;5.40;;;;;;;18.24;72.54;100581.12;84674;1327;22614;-72
2022/07/22 02:44:18;;;;;;;5.80;5.20;;;;;;;18.23;72.47;100589.32;84793;1326;22583;-70
2022/07/22 02:46:28;;;;;;;5.10;4.30;;;;;;;18.22;72.56;100582.70;84678;1328;23928;-72
2022/07/22 02:48:37;;;;;;;8.10;4.70;;;;;;;18.20;72.73;100585.98;84788;1327;22601;-71
2022/07/22 02:50:50;;;;;;;8.10;5.20;;;;;;;18.18;72.64;100585.58;84626;1328;22871;-70
2022/07/22 02:52:59;;;;;;;7.10;5.10;;;;;;;18.14;72.81;100574.73;84784;1326;22661;-70
2022/07/22 02:55:10;;;;;;;7.20;4.40;;;;;;;18.12;72.94;100575.94;84763;1326;22630;-69
2022/07/22 02:57:19;;;;;;;7.00;4.30;;;;;;;18.10;73.08;100577.48;84671;1329;22657;-71
2022/07/22 02:59:28;;;;;;;5.20;4.40;;;;;;;18.10;73.16;100579.27;84785;1326;22585;-69
2022/07/22 03:01:37;;;;;;;7.00;4.70;;;;;;;18.06;73.30;100572.76;84757;1325;22574;-71
2022/07/22 03:03:46;;;;;;;7.10;4.20;;;;;;;18.04;73.37;100573.11;84796;1326;22648;-70
2022/07/22 03:05:54;;;;;;;6.20;4.00;;;;;;;17.99;73.52;100566.02;84710;1326;22668;-70
2022/07/22 03:08:03;;;;;;;7.60;4.80;;;;;;;17.94;73.67;100565.64;84777;1326;25536;-71
2022/07/22 03:10:12;;;;;;;5.10;4.40;;;;;;;17.92;73.84;100567.16;84735;1326;22559;-71
2022/07/22 03:12:21;;;;;;;8.70;4.30;;;;;;;17.91;74.01;100564.77;84783;1326;22612;-71
2022/07/22 03:14:30;;;;;;;6.20;4.80;;;;;;;17.89;74.18;100562.99;84730;1326;22593;-71
2022/07/22 03:16:39;;;;;;;5.10;4.70;;;;;;;17.87;74.30;100560.98;84769;1325;22607;-70
2022/07/22 03:18:48;;;;;;;5.40;4.50;;;;;;;17.87;74.56;100562.92;84700;1326;22584;-70
2022/07/22 03:20:57;;;;;;;4.90;4.30;;;;;;;17.88;74.64;100563.20;84762;1326;23968;-72
2022/07/22 03:23:05;;;;;;;9.90;5.30;;;;;;;17.88;74.67;100562.85;84780;1327;25249;-69
2022/07/22 03:25:14;;;;;;;6.30;4.70;;;;;;;17.90;74.82;100562.03;84790;1326;22598;-69
2022/07/22 03:27:23;;;;;;;6.80;5.00;;;;;;;17.95;74.92;100561.37;84701;1326;22579;-69
2022/07/22 03:29:32;;;;;;;18.30;6.30;;;;;;;17.98;75.19;100558.86;84754;1326;22599;-72
2022/07/22 03:31:40;;;;;;;7.40;4.30;;;;;;;18.01;75.41;100555.48;84686;1326;24259;-70
2022/07/22 03:33:49;;;;;;;9.10;4.90;;;;;;;18.06;75.46;100553.35;84753;1322;24364;-71
2022/07/22 03:35:58;;;;;;;6.40;4.50;;;;;;;18.12;75.63;100557.90;84708;1326;22725;-71
2022/07/22 03:38:07;;;;;;;6.60;4.50;;;;;;;18.19;75.66;100565.59;84697;1326;22635;-73
2022/07/22 03:40:16;;;;;;;11.00;4.50;;;;;;;18.28;75.67;100564.45;84732;1326;22573;-71
2022/07/22 03:42:25;;;;;;;4.90;4.40;;;;;;;18.34;75.63;100562.13;84773;1325;22566;-73
2022/07/22 03:44:34;;;;;;;6.20;5.60;;;;;;;18.37;75.67;100566.30;84515;1320;308529;-70
2022/07/22 03:46:42;;;;;;;4.60;3.90;;;;;;;18.46;75.86;100570.96;84771;1327;24241;-70
2022/07/22 03:48:51;;;;;;;8.40;4.70;;;;;;;18.75;75.85;100572.92;84725;1326;24280;-69
2022/07/22 03:51:00;;;;;;;5.60;4.40;;;;;;;19.17;75.90;100577.77;84773;1325;26596;-70
2022/07/22 03:53:09;;;;;;;5.50;3.90;;;;;;;19.67;75.65;100583.61;84702;1326;22580;-70
2022/07/22 03:55:18;;;;;;;6.50;4.60;;;;;;;20.17;75.32;100589.10;84749;1326;22782;-71
2022/07/22 03:57:27;;;;;;;5.10;4.30;;;;;;;20.74;74.92;100575.80;84790;1322;22630;-70
2022/07/22 03:59:34;;;;;;;;;;;;;;;21.22;72.82;100575.77;84731;1326;22569;-70
2022/07/22 04:01:43;;;;;;;8.20;4.50;;;;;;;21.59;71.80;100576.77;84771;1326;22872;-71
2022/07/22 04:03:52;;;;;;;15.20;5.00;;;;;;;22.05;70.64;100570.81;84717;1326;22883;-70
2022/07/22 04:06:01;;;;;;;4.70;4.00;;;;;;;22.46;69.24;100565.61;84763;1325;24142;-71
2022/07/22 04:08:10;;;;;;;6.10;4.30;;;;;;;22.85;67.86;100557.50;84767;1325;22599;-72
2022/07/22 04:10:19;;;;;;;8.10;4.20;;;;;;;23.26;66.43;100566.05;84707;1326;22908;-69
2022/07/22 04:12:27;;;;;;;7.10;4.40;;;;;;;23.66;64.90;100571.70;84781;1325;22596;-73
2022/07/22 04:14:36;;;;;;;9.90;4.60;;;;;;;23.95;63.62;100577.29;84705;1326;22600;-72
2022/07/22 04:16:45;;;;;;;5.40;4.40;;;;;;;24.27;62.69;100575.43;84768;1325;24245;-71
2022/07/22 04:18:54;;;;;;;4.90;4.30;;;;;;;24.61;61.92;100574.96;84701;1327;25246;-71
2022/07/22 04:21:03;;;;;;;6.00;4.80;;;;;;;24.97;60.70;100565.36;84753;1325;26707;-70
2022/07/22 04:23:12;;;;;;;5.90;3.90;;;;;;;25.33;59.25;100564.98;84692;1325;22589;-71
2022/07/22 04:25:20;;;;;;;6.00;4.10;;;;;;;25.60;58.35;100562.48;84771;1327;24273;-72
2022/07/22 04:27:29;;;;;;;7.20;4.40;;;;;;;25.70;57.67;100560.91;84704;1323;22603;-71
2022/07/22 04:29:38;;;;;;;6.20;4.50;;;;;;;25.53;56.27;100558.18;84802;1326;22584;-72
2022/07/22 04:31:47;;;;;;;4.70;4.10;;;;;;;25.19;56.21;100558.60;84722;1326;22626;-72
2022/07/22 04:33:56;;;;;;;6.00;5.00;;;;;;;24.91;56.88;100564.90;84772;1326;22610;-71
2022/07/22 04:36:05;;;;;;;7.00;4.60;;;;;;;24.70;57.39;100563.80;84694;1326;25458;-71
2022/07/22 04:38:13;;;;;;;;;;;;;;;24.46;57.82;100556.10;84783;1326;22709;-71
2022/07/22 04:40:22;;;;;;;8.30;4.30;;;;;;;24.21;58.44;100556.23;84722;1326;22949;-70
2022/07/22 04:42:31;;;;;;;4.70;4.20;;;;;;;24.08;59.10;100557.39;84764;1326;25105;-71
2022/07/22 04:44:39;;;;;;;8.80;5.40;;;;;;;23.95;59.02;100560.01;84787;1321;23851;-72
2022/07/22 04:46:48;;;;;;;6.10;4.80;;;;;;;23.86;59.83;100560.20;84767;1325;22580;-72
2022/07/22 04:48:57;;;;;;;9.80;5.00;;;;;;;23.88;60.23;100561.96;84713;1326;22805;-71
2022/07/22 04:51:06;;;;;;;7.00;4.80;;;;;;;23.91;60.37;100558.57;84771;1322;25589;-70
2022/07/22 04:53:15;;;;;;;6.00;4.60;;;;;;;23.92;60.35;100552.83;84709;1326;22553;-70
2022/07/22 04:55:25;;;;;;;6.10;4.30;;;;;;;23.97;60.63;100555.09;84799;1324;22612;-74
2022/07/22 04:57:34;;;;;;;7.20;4.90;;;;;;;24.27;61.29;100552.30;84716;1322;22551;-72
2022/07/22 04:59:43;;;;;;;5.20;4.30;;;;;;;24.88;61.12;100545.47;84797;1324;25287;-74
2022/07/22 05:01:51;;;;;;;9.30;5.10;;;;;;;25.62;59.85;100546.02;84709;1326;22721;-74
2022/07/22 05:04:00;;;;;;;5.70;4.70;;;;;;;26.34;58.90;100547.36;84803;1326;24927;-72
2022/07/22 05:06:09;;;;;;;8.60;5.10;;;;;;;27.15;57.47;100539.79;84695;1326;22672;-71
2022/07/22 05:08:19;;;;;;;4.20;3.60;;;;;;;27.92;55.24;100540.34;84760;1327;22593;-71
2022/07/22 05:10:28;;;;;;;8.40;5.10;;;;;;;28.51;53.07;100536.73;84696;1325;22857;-73
2022/07/22 05:12:37;;;;;;;4.90;4.20;;;;;;;28.99;52.25;100536.05;84788;1325;24227;-73
2022/07/22 05:14:46;;;;;;;4.70;3.80;;;;;;;29.53;50.26;100536.52;84716;1326;22584;-72
2022/07/22 05:16:54;;;;;;;7.10;4.70;;;;;;;29.94;49.48;100534.13;84762;1325;22588;-72
2022/07/22 05:19:03;;;;;;;7.60;3.40;;;;;;;30.39;48.37;100537.04;84757;1325;22871;-72
2022/07/22 05:21:12;;;;;;;5.30;3.90;;;;;;;30.82;46.95;100539.80;84771;1325;24366;-72
2022/07/22 05:23:21;;;;;;;5.70;4.80;;;;;;;31.14;45.93;100534.81;84684;1326;23761;-72
2022/07/22 05:25:28;;;;;;;;;;;;;;;31.52;45.51;100540.25;84766;1325;22716;-71
2022/07/22 05:27:38;;;;;;;7.30;3.90;;;;;;;31.82;44.27;100541.59;84800;1326;22705;-72
2022/07/22 05:29:47;;;;;;;6.50;4.30;;;;;;;32.07;43.37;100538.05;84697;1327;22810;-72
2022/07/22 05:31:56;;;;;;;6.20;4.10;;;;;;;32.41;42.71;100533.90;84789;1326;22607;-72
2022/07/22 05:34:06;;;;;;;6.60;4.20;;;;;;;32.75;40.99;100536.69;84728;1326;22606;-72
2022/07/22 05:36:14;;;;;;;6.00;3.80;;;;;;;33.19;40.74;100540.70;84765;1326;22677;-72
2022/07/22 05:38:25;;;;;;;5.20;3.80;;;;;;;33.59;40.11;100540.02;84764;1327;22638;-72
2022/07/22 05:40:34;;;;;;;7.00;3.50;;;;;;;33.95;39.02;100539.21;84695;1328;22628;-73
2022/07/22 05:42:42;;;;;;;6.50;3.80;;;;;;;34.24;37.07;100540.86;84758;1327;22604;-74
2022/07/22 05:44:51;;;;;;;4.40;3.80;;;;;;;34.54;37.49;100539.12;84781;1326;22607;-72
2022/07/22 05:47:00;;;;;;;4.60;3.50;;;;;;;34.84;37.06;100541.11;84760;1321;23054;-71
2022/07/22 05:49:09;;;;;;;7.60;3.50;;;;;;;35.20;35.43;100539.00;84787;1326;22749;-73
2022/07/22 05:51:18;;;;;;;5.50;4.00;;;;;;;35.47;34.72;100538.23;84711;1326;22623;-72
2022/07/22 05:53:27;;;;;;;6.50;4.20;;;;;;;35.73;34.36;100537.73;84794;1326;23941;-72
2022/07/22 05:55:36;;;;;;;11.00;4.80;;;;;;;35.85;34.34;100532.20;84704;1326;25300;-71
2022/07/22 05:57:50;;;;;;;7.70;4.10;;;;;;;36.10;33.32;100535.48;84773;1326;22666;-70
2022/07/22 05:59:59;;;;;;;9.30;4.40;;;;;;;36.28;32.25;100534.15;84742;1326;23887;-69
2022/07/22 06:02:08;;;;;;;8.70;4.00;;;;;;;36.40;32.66;100536.30;84764;1325;22582;-68
2022/07/22 06:04:20;;;;;;;9.20;3.90;;;;;;;36.50;31.83;100540.02;84745;1330;22581;-70
2022/07/22 06:06:31;;;;;;;13.90;4.40;;;;;;;36.72;31.57;100535.17;84757;1326;25439;-71
2022/07/22 06:08:41;;;;;;;6.50;3.80;;;;;;;36.88;31.76;100534.63;84644;1323;22669;-71
2022/07/22 06:10:50;;;;;;;13.60;3.90;;;;;;;37.00;31.96;100535.90;84806;1326;23960;-70
2022/07/22 06:13:00;;;;;;;9.00;4.10;;;;;;;37.22;30.82;100534.45;84782;1325;24250;-70
2022/07/22 06:15:11;;;;;;;10.60;4.20;;;;;;;37.28;30.56;100533.63;84771;1327;22935;-70
2022/07/22 06:17:20;;;;;;;16.10;6.40;;;;;;;37.41;30.21;100533.77;84728;1326;22873;-70
2022/07/22 06:19:29;;;;;;;13.60;5.20;;;;;;;37.54;29.53;100538.55;84799;1326;22668;-69
2022/07/22 06:21:40;;;;;;;15.60;6.30;;;;;;;37.58;29.77;100536.56;84681;1324;22598;-69
2022/07/22 06:23:49;;;;;;;15.90;6.30;;;;;;;37.81;30.26;100540.64;84751;1326;25439;-70
2022/07/22 06:25:58;;;;;;;10.70;6.00;;;;;;;37.99;29.75;100539.32;84688;1326;22751;-71
2022/07/22 06:28:07;;;;;;;12.90;5.10;;;;;;;38.21;29.31;100545.44;84751;1326;24314;-71
2022/07/22 06:30:17;;;;;;;4.20;3.50;;;;;;;38.43;28.68;100545.34;84794;1325;22600;-71
2022/07/22 06:32:26;;;;;;;7.80;3.60;;;;;;;38.70;28.11;100545.35;84681;1327;23956;-71
2022/07/22 06:34:35;;;;;;;7.20;3.80;;;;;;;39.06;27.38;100548.13;84766;1326;22581;-69
2022/07/22 06:36:44;;;;;;;6.80;3.70;;;;;;;39.41;27.16;100550.28;84679;1328;24368;-70
2022/07/22 06:38:53;;;;;;;10.10;3.80;;;;;;;39.69;26.50;100554.61;84763;1325;22603;-71
2022/07/22 06:41:01;;;;;;;11.30;3.60;;;;;;;39.88;25.92;100556.11;84682;1326;26478;-71
2022/07/22 06:43:10;;;;;;;5.90;3.80;;;;;;;40.07;25.23;100560.39;84746;1330;24212;-71
2022/07/22 06:45:19;;;;;;;11.10;4.00;;;;;;;40.31;25.10;100566.33;84729;1326;22587;-70
2022/07/22 06:47:28;;;;;;;6.80;3.40;;;;;;;40.59;25.01;100566.24;84754;1326;26485;-70
2022/07/22 06:49:37;;;;;;;13.70;3.70;;;;;;;40.66;24.58;100569.25;84709;1324;22609;-71
2022/07/22 06:51:45;;;;;;;10.10;3.70;;;;;;;40.75;24.33;100573.05;84705;1326;22605;-71
2022/07/22 06:53:54;;;;;;;9.10;3.90;;;;;;;40.89;24.34;100574.63;84753;1326;25337;-71
2022/07/22 06:56:03;;;;;;;3.90;3.50;;;;;;;40.96;24.07;100568.11;84700;1326;22717;-71
2022/07/22 06:58:12;;;;;;;19.00;17.10;;;;;;;40.95;23.79;100568.46;84753;1325;22755;-70
2022/07/22 07:00:22;;;;;;;13.50;6.80;;;;;;;40.80;24.50;100570.04;84678;1326;25288;-70
2022/07/22 07:02:31;;;;;;;6.10;3.80;;;;;;;40.67;24.27;100566.59;84771;1317;22712;-70
2022/07/22 07:04:39;;;;;;;7.70;3.50;;;;;;;40.68;24.74;100562.59;84692;1326;22758;-70
2022/07/22 07:06:49;;;;;;;8.90;3.90;;;;;;;40.74;24.54;100563.54;84744;1326;22868;-70
2022/07/22 07:08:58;;;;;;;7.90;4.20;;;;;;;40.75;24.25;100560.59;84732;1327;22610;-70
2022/07/22 07:11:07;;;;;;;6.20;3.70;;;;;;;40.71;24.05;100559.19;84784;1326;24123;-71
2022/07/22 07:13:17;;;;;;;6.70;3.70;;;;;;;40.76;24.25;100559.85;84721;1326;22642;-71
2022/07/22 07:15:26;;;;;;;7.60;3.60;;;;;;;41.08;23.94;100558.92;84801;1326;24404;-70
2022/07/22 07:17:35;;;;;;;6.30;3.50;;;;;;;41.33;23.99;100554.61;84703;1328;25485;-71
2022/07/22 07:19:44;;;;;;;9.20;4.00;;;;;;;41.32;23.63;100560.10;84753;1326;22617;-70
2022/07/22 07:21:54;;;;;;;9.70;3.60;;;;;;;41.45;23.51;100561.96;84773;1326;22871;-70
2022/07/22 07:24:38;;;;;;;7.10;3.90;;;;;;;41.50;23.48;100554.33;84791;1326;22673;-71
2022/07/22 07:26:58;;;;;;;4.70;4.20;;;;;;;41.71;22.90;100552.42;84803;1322;22666;-71
2022/07/22 07:29:28;;;;;;;10.10;4.30;;;;;;;42.00;22.65;100547.85;84732;1326;22620;-72
2022/07/22 07:32:11;;;;;;;10.20;4.60;;;;;;;42.19;23.05;100552.42;84831;1327;22601;-70
2022/07/22 07:34:49;;;;;;;5.10;4.10;;;;;;;42.46;22.56;100549.61;84769;1329;22785;-71
2022/07/22 07:37:07;;;;;;;9.40;5.00;;;;;;;42.63;21.92;100548.86;84811;1326;22617;-72
2022/07/22 07:39:16;;;;;;;6.20;4.80;;;;;;;42.87;21.96;100554.58;84790;1325;22975;-72
2022/07/22 07:41:26;;;;;;;8.20;4.10;;;;;;;42.94;21.64;100552.96;84752;1323;22694;-72
2022/07/22 07:43:35;;;;;;;13.70;4.50;;;;;;;42.83;21.84;100549.06;84753;1330;24081;-71
2022/07/22 07:45:44;;;;;;;5.30;4.20;;;;;;;42.87;21.91;100549.09;84677;1329;22812;-71
2022/07/22 07:47:52;;;;;;;12.80;5.30;;;;;;;42.93;21.81;100546.41;84769;1325;24377;-71
2022/07/22 07:50:02;;;;;;;6.90;5.50;;;;;;;42.92;21.73;100547.35;84712;1323;22588;-70
2022/07/22 07:52:12;;;;;;;6.20;4.60;;;;;;;42.86;21.71;100546.00;84757;1327;22616;-71
2022/07/22 07:54:21;;;;;;;8.10;4.50;;;;;;;42.99;22.11;100542.33;84717;1320;22845;-71
2022/07/22 07:56:29;;;;;;;6.70;5.20;;;;;;;43.17;21.54;100539.33;84747;1327;22606;-70
2022/07/22 07:58:38;;;;;;;8.30;4.90;;;;;;;43.22;21.61;100542.70;84707;1326;25318;-71
2022/07/22 08:00:47;;;;;;;8.10;5.00;;;;;;;43.10;21.56;100547.77;84756;1325;22583;-71
2022/07/22 08:02:56;;;;;;;7.40;5.90;;;;;;;43.05;21.56;100547.54;84787;1326;24199;-71
2022/07/22 08:05:06;;;;;;;7.20;5.70;;;;;;;42.96;21.77;100546.17;84795;1326;22619;-72
2022/07/22 08:07:15;;;;;;;7.90;5.80;;;;;;;43.09;21.72;100542.65;84704;1329;24121;-72
2022/07/22 08:09:24;;;;;;;14.20;6.10;;;;;;;43.28;21.73;100545.52;84799;1326;22628;-72
2022/07/22 08:11:32;;;;;;;10.80;5.70;;;;;;;43.22;21.95;100546.55;84717;1326;24239;-72
2022/07/22 08:13:42;;;;;;;8.00;5.60;;;;;;;43.30;21.76;100546.70;84795;1322;23956;-72
2022/07/22 08:15:51;;;;;;;9.70;6.30;;;;;;;43.51;21.39;100548.14;84685;1326;22634;-72
2022/07/22 08:18:00;;;;;;;9.10;6.20;;;;;;;43.43;21.97;100546.35;84779;1326;22613;-72
2022/07/22 08:20:11;;;;;;;13.20;4.80;;;;;;;43.26;21.62;100541.84;84691;1326;23940;-72
2022/07/22 08:22:20;;;;;;;7.70;5.90;;;;;;;43.33;21.21;100545.43;84808;1325;22805;-73
2022/07/22 08:24:28;;;;;;;8.00;6.10;;;;;;;43.56;20.99;100545.17;84717;1326;24069;-73
2022/07/22 08:26:37;;;;;;;9.40;6.30;;;;;;;43.74;21.00;100543.77;84769;1330;22576;-71
2022/07/22 08:28:46;;;;;;;13.10;6.60;;;;;;;43.80;20.85;100537.00;84734;1326;22613;-70
2022/07/22 08:30:55;;;;;;;9.50;6.40;;;;;;;43.84;21.20;100534.98;84772;1327;22626;-70
2022/07/22 08:33:04;;;;;;;10.40;6.30;;;;;;;43.80;21.02;100535.23;84728;1326;23941;-70
2022/07/22 08:35:13;;;;;;;12.30;6.90;;;;;;;43.78;21.43;100528.89;84794;1325;22689;-71
2022/07/22 08:37:22;;;;;;;8.50;6.60;;;;;;;43.85;21.69;100531.85;84793;1326;24352;-71
2022/07/22 08:39:33;;;;;;;7.40;6.50;;;;;;;44.11;20.80;100530.84;84742;1320;22730;-73
2022/07/22 08:41:42;;;;;;;10.10;6.60;;;;;;;44.13;20.39;100529.63;84781;1322;22964;-73
2022/07/22 08:43:51;;;;;;;10.00;6.30;;;;;;;44.13;20.63;100530.39;84774;1326;22839;-74
2022/07/22 08:46:04;;;;;;;9.40;7.40;;;;;;;44.24;20.58;100530.64;84784;1326;24272;-72
2022/07/22 08:48:16;;;;;;;9.50;6.90;;;;;;;44.35;20.14;100533.65;84739;1324;22616;-72
2022/07/22 08:50:31;;;;;;;11.40;6.30;;;;;;;44.37;20.58;100530.77;84793;1326;24096;-72
2022/07/22 08:53:27;;;;;;;13.20;7.40;;;;;;;44.55;20.63;100531.39;84777;1322;26501;-72
2022/07/22 08:55:41;;;;;;;18.40;8.30;;;;;;;44.68;20.68;100531.16;84599;1333;22625;-72
2022/07/22 08:57:50;;;;;;;13.70;7.10;;;;;;;44.78;20.20;100531.90;84553;1331;22589;-72
2022/07/22 09:00:01;;;;;;;7.30;6.70;;;;;;;44.89;20.21;100532.35;84564;1329;22877;-73
2022/07/22 09:02:12;;;;;;;8.50;7.60;;;;;;;44.96;19.85;100534.86;84593;1328;22590;-72
2022/07/22 09:04:21;;;;;;;10.30;6.80;;;;;;;44.93;19.54;100534.65;84563;1332;22588;-73
2022/07/22 09:06:33;;;;;;;7.50;6.80;;;;;;;44.84;19.95;100531.54;84570;1331;22627;-71
2022/07/22 09:08:56;;;;;;;12.30;7.70;;;;;;;44.67;20.47;100530.61;84578;1329;23938;-71
2022/07/22 09:11:19;;;;;;;11.80;7.00;;;;;;;44.72;20.31;100529.65;84575;1329;22906;-73
2022/07/22 09:13:29;;;;;;;6.80;6.10;;;;;;;44.71;20.29;100528.99;84594;1331;22593;-71
2022/07/22 09:15:49;;;;;;;7.80;6.50;;;;;;;44.54;20.39;100530.36;84565;1328;22577;-72
2022/07/22 09:17:59;;;;;;;9.00;7.20;;;;;;;44.46;20.63;100530.98;84591;1322;22745;-74
2022/07/22 09:20:19;;;;;;;9.20;6.50;;;;;;;44.41;20.12;100529.33;84563;1326;24245;-71
2022/07/22 09:22:40;;;;;;;9.70;7.00;;;;;;;44.06;20.47;100529.56;84595;1330;23916;-72
2022/07/22 09:24:49;;;;;;;8.70;7.90;;;;;;;43.76;21.29;100527.96;84593;1327;22580;-71
2022/07/22 09:27:00;;;;;;;8.40;7.60;;;;;;;43.54;21.36;100534.96;84579;1331;23260;-71
2022/07/22 09:29:09;;;;;;;9.90;7.40;;;;;;;43.14;21.72;100533.09;84601;1330;25455;-72
2022/07/22 09:31:30;;;;;;;8.60;7.10;;;;;;;42.67;22.05;100530.04;84589;1331;22609;-71
2022/07/22 09:33:44;;;;;;;12.10;7.60;;;;;;;42.19;22.71;100527.83;84573;1333;23965;-72
2022/07/22 09:35:54;;;;;;;14.80;8.60;;;;;;;41.87;23.01;100532.35;84570;1332;22629;-72
2022/07/22 09:38:04;;;;;;;13.20;7.90;;;;;;;41.54;22.82;100530.96;84577;1330;25307;-71
2022/07/22 09:40:22;;;;;;;13.60;7.80;;;;;;;41.17;23.54;100536.48;84559;1332;22616;-70
2022/07/22 09:42:31;;;;;;;13.30;8.10;;;;;;;40.84;24.09;100540.30;84522;1331;22728;-71
2022/07/22 09:44:40;;;;;;;10.40;8.10;;;;;;;40.36;25.48;100536.59;84584;1327;22723;-71
2022/07/22 09:46:52;;;;;;;10.10;7.90;;;;;;;39.89;26.21;100535.17;84572;1332;22613;-70
2022/07/22 09:49:01;;;;;;;10.10;8.00;;;;;;;39.52;26.45;100528.54;84560;1332;25455;-71
2022/07/22 09:51:10;;;;;;;11.40;9.00;;;;;;;39.23;27.09;100521.17;84506;1331;22607;-71
2022/07/22 09:53:20;;;;;;;10.10;9.00;;;;;;;39.03;26.89;100514.45;84618;1331;24336;-70
2022/07/22 09:55:30;;;;;;;11.70;8.10;;;;;;;38.82;27.01;100514.55;84551;1331;23940;-70
2022/07/22 09:57:40;;;;;;;18.10;10.70;;;;;;;38.53;27.34;100518.11;84669;1332;22582;-72
2022/07/22 09:59:50;;;;;;;13.60;9.30;;;;;;;38.29;27.93;100521.73;84557;1331;22607;-70
2022/07/22 10:02:01;;;;;;;10.30;8.00;;;;;;;37.93;28.59;100520.29;84635;1327;24059;-70
2022/07/22 10:04:10;;;;;;;15.70;10.00;;;;;;;37.66;28.62;100521.55;84557;1333;25585;-71
2022/07/22 10:06:19;;;;;;;12.30;8.50;;;;;;;37.68;28.77;100519.30;84534;1332;22851;-70